sensor_id;sensor_type;location;lat;lon;timestamp;temperature;humidity
16154;DHT22;8182;55.648;13.208;2024-03-22T00:00:25;6.60;1.00
16154;DHT22;8182;55.648;13.208;2024-03-22T00:02:51;6.60;1.00
16154;DHT22;8182;55.648;13.208;2024-03-22T00:05:18;6.50;1.00
16154;DHT22;8182;55.648;13.208;2024-03-22T00:07:46;6.40;1.00
16154;DHT22;8182;55.648;13.208;2024-03-22T00:10:13;6.30;1.00
16154;DHT22;8182;55.648;13.208;2024-03-22T00:12:39;6.30;1.00
16154;DHT22;8182;55.648;13.208;2024-03-22T00:15:07;6.30;1.00
16154;DHT22;8182;55.648;13.208;2024-03-22T00:17:34;6.40;1.00
16154;DHT22;8182;55.648;13.208;2024-03-22T00:20:01;6.40;1.00
16154;DHT22;8182;55.648;13.208;2024-03-22T00:22:27;6.40;1.00
16154;DHT22;8182;55.648;13.208;2024-03-22T00:24:53;6.40;1.00
16154;DHT22;8182;55.648;13.208;2024-03-22T00:27:19;6.50;1.00
16154;DHT22;8182;55.648;13.208;2024-03-22T00:29:46;6.50;1.00
16154;DHT22;8182;55.648;13.208;2024-03-22T00:32:12;6.40;1.00
16154;DHT22;8182;55.648;13.208;2024-03-22T00:34:40;6.40;1.00
16154;DHT22;8182;55.648;13.208;2024-03-22T00:37:06;6.40;1.00
16154;DHT22;8182;55.648;13.208;2024-03-22T00:39:33;6.30;1.00
16154;DHT22;8182;55.648;13.208;2024-03-22T00:42:01;6.30;1.00
16154;DHT22;8182;55.648;13.208;2024-03-22T00:44:28;6.30;1.00
16154;DHT22;8182;55.648;13.208;2024-03-22T00:46:53;6.30;1.00
16154;DHT22;8182;55.648;13.208;2024-03-22T00:49:20;6.20;1.00
16154;DHT22;8182;55.648;13.208;2024-03-22T00:51:47;6.20;1.00
16154;DHT22;8182;55.648;13.208;2024-03-22T00:54:14;6.20;1.00
16154;DHT22;8182;55.648;13.208;2024-03-22T00:56:40;6.20;1.00
16154;DHT22;8182;55.648;13.208;2024-03-22T00:59:07;6.30;1.00
16154;DHT22;8182;55.648;13.208;2024-03-22T01:01:33;6.40;1.00
16154;DHT22;8182;55.648;13.208;2024-03-22T01:04:00;6.30;1.00
16154;DHT22;8182;55.648;13.208;2024-03-22T01:06:25;6.30;1.00
16154;DHT22;8182;55.648;13.208;2024-03-22T01:08:54;6.30;1.00
16154;DHT22;8182;55.648;13.208;2024-03-22T01:11:20;6.30;1.00
16154;DHT22;8182;55.648;13.208;2024-03-22T01:13:46;6.40;1.00
16154;DHT22;8182;55.648;13.208;2024-03-22T01:16:12;6.40;1.00
16154;DHT22;8182;55.648;13.208;2024-03-22T01:18:39;6.40;1.00
16154;DHT22;8182;55.648;13.208;2024-03-22T01:21:05;6.40;1.00
16154;DHT22;8182;55.648;13.208;2024-03-22T01:23:32;6.40;1.00
16154;DHT22;8182;55.648;13.208;2024-03-22T01:26:00;6.40;1.00
16154;DHT22;8182;55.648;13.208;2024-03-22T01:28:26;6.40;1.00
16154;DHT22;8182;55.648;13.208;2024-03-22T01:30:52;6.40;1.00
16154;DHT22;8182;55.648;13.208;2024-03-22T01:33:19;6.20;1.00
16154;DHT22;8182;55.648;13.208;2024-03-22T01:35:45;6.20;1.00
16154;DHT22;8182;55.648;13.208;2024-03-22T01:38:12;6.20;1.00
16154;DHT22;8182;55.648;13.208;2024-03-22T01:40:38;6.20;1.00
16154;DHT22;8182;55.648;13.208;2024-03-22T01:43:06;6.20;1.00
16154;DHT22;8182;55.648;13.208;2024-03-22T01:45:33;6.30;1.00
16154;DHT22;8182;55.648;13.208;2024-03-22T01:48:00;6.30;1.00
16154;DHT22;8182;55.648;13.208;2024-03-22T01:50:27;6.20;1.00
16154;DHT22;8182;55.648;13.208;2024-03-22T01:52:54;6.20;1.00
16154;DHT22;8182;55.648;13.208;2024-03-22T01:55:20;6.20;1.00
16154;DHT22;8182;55.648;13.208;2024-03-22T01:57:48;6.30;1.00
16154;DHT22;8182;55.648;13.208;2024-03-22T02:00:16;6.20;1.00
16154;DHT22;8182;55.648;13.208;2024-03-22T02:02:43;6.20;1.00
16154;DHT22;8182;55.648;13.208;2024-03-22T02:05:12;6.30;1.00
16154;DHT22;8182;55.648;13.208;2024-03-22T02:07:39;6.40;1.00
16154;DHT22;8182;55.648;13.208;2024-03-22T02:10:06;6.40;1.00
16154;DHT22;8182;55.648;13.208;2024-03-22T02:12:36;6.40;1.00
16154;DHT22;8182;55.648;13.208;2024-03-22T02:15:02;6.50;1.00
16154;DHT22;8182;55.648;13.208;2024-03-22T02:17:31;6.50;1.00
16154;DHT22;8182;55.648;13.208;2024-03-22T02:19:57;6.50;1.00
16154;DHT22;8182;55.648;13.208;2024-03-22T02:22:25;6.50;1.00
16154;DHT22;8182;55.648;13.208;2024-03-22T02:24:52;6.40;1.00
16154;DHT22;8182;55.648;13.208;2024-03-22T02:27:19;6.40;1.00
16154;DHT22;8182;55.648;13.208;2024-03-22T02:29:45;6.40;6.90
16154;DHT22;8182;55.648;13.208;2024-03-22T02:32:12;6.50;99.90
16154;DHT22;8182;55.648;13.208;2024-03-22T02:34:39;6.50;99.90
16154;DHT22;8182;55.648;13.208;2024-03-22T02:37:05;6.50;99.90
16154;DHT22;8182;55.648;13.208;2024-03-22T02:39:31;6.60;99.90
16154;DHT22;8182;55.648;13.208;2024-03-22T02:41:59;6.50;99.90
16154;DHT22;8182;55.648;13.208;2024-03-22T02:44:25;6.40;99.90
16154;DHT22;8182;55.648;13.208;2024-03-22T02:46:53;6.40;99.90
16154;DHT22;8182;55.648;13.208;2024-03-22T02:49:19;6.40;1.00
16154;DHT22;8182;55.648;13.208;2024-03-22T02:51:46;6.30;1.00
16154;DHT22;8182;55.648;13.208;2024-03-22T02:54:12;6.30;1.00
16154;DHT22;8182;55.648;13.208;2024-03-22T02:56:39;6.30;1.00
16154;DHT22;8182;55.648;13.208;2024-03-22T02:59:06;6.40;1.00
16154;DHT22;8182;55.648;13.208;2024-03-22T03:01:33;6.40;99.90
16154;DHT22;8182;55.648;13.208;2024-03-22T03:03:59;6.40;99.90
16154;DHT22;8182;55.648;13.208;2024-03-22T03:06:26;6.40;1.00
16154;DHT22;8182;55.648;13.208;2024-03-22T03:08:52;6.40;1.00
16154;DHT22;8182;55.648;13.208;2024-03-22T03:11:19;6.40;99.90
16154;DHT22;8182;55.648;13.208;2024-03-22T03:13:44;6.40;1.00
16154;DHT22;8182;55.648;13.208;2024-03-22T03:16:13;6.40;1.00
16154;DHT22;8182;55.648;13.208;2024-03-22T03:18:38;6.40;1.00
16154;DHT22;8182;55.648;13.208;2024-03-22T03:21:06;6.30;1.00
16154;DHT22;8182;55.648;13.208;2024-03-22T03:23:33;6.30;1.00
16154;DHT22;8182;55.648;13.208;2024-03-22T03:26:00;6.40;1.00
16154;DHT22;8182;55.648;13.208;2024-03-22T03:28:26;6.40;1.00
16154;DHT22;8182;55.648;13.208;2024-03-22T03:30:53;6.40;1.00
16154;DHT22;8182;55.648;13.208;2024-03-22T03:33:20;6.40;1.00
16154;DHT22;8182;55.648;13.208;2024-03-22T03:35:47;6.40;1.00
16154;DHT22;8182;55.648;13.208;2024-03-22T03:38:14;6.50;1.00
16154;DHT22;8182;55.648;13.208;2024-03-22T03:40:41;6.40;1.00
16154;DHT22;8182;55.648;13.208;2024-03-22T03:43:07;6.30;1.00
16154;DHT22;8182;55.648;13.208;2024-03-22T03:45:36;6.40;99.90
16154;DHT22;8182;55.648;13.208;2024-03-22T03:48:02;6.50;99.90
16154;DHT22;8182;55.648;13.208;2024-03-22T03:50:31;6.50;1.00
16154;DHT22;8182;55.648;13.208;2024-03-22T03:52:57;6.50;1.00
16154;DHT22;8182;55.648;13.208;2024-03-22T03:55:23;6.50;1.00
16154;DHT22;8182;55.648;13.208;2024-03-22T03:57:50;6.50;1.00
16154;DHT22;8182;55.648;13.208;2024-03-22T04:00:18;6.50;1.00
16154;DHT22;8182;55.648;13.208;2024-03-22T04:02:44;6.50;1.00
16154;DHT22;8182;55.648;13.208;2024-03-22T04:05:11;6.50;1.00
16154;DHT22;8182;55.648;13.208;2024-03-22T04:07:38;6.50;99.90
16154;DHT22;8182;55.648;13.208;2024-03-22T04:10:08;6.50;99.90
16154;DHT22;8182;55.648;13.208;2024-03-22T04:12:34;6.50;99.90
16154;DHT22;8182;55.648;13.208;2024-03-22T04:15:01;6.50;99.90
16154;DHT22;8182;55.648;13.208;2024-03-22T04:17:27;6.60;99.90
16154;DHT22;8182;55.648;13.208;2024-03-22T04:19:54;6.60;1.00
16154;DHT22;8182;55.648;13.208;2024-03-22T04:22:20;6.60;1.00
16154;DHT22;8182;55.648;13.208;2024-03-22T04:24:48;6.50;1.00
16154;DHT22;8182;55.648;13.208;2024-03-22T04:27:14;6.50;25.10
16154;DHT22;8182;55.648;13.208;2024-03-22T04:29:41;6.40;54.80
16154;DHT22;8182;55.648;13.208;2024-03-22T04:32:06;6.40;1.00
16154;DHT22;8182;55.648;13.208;2024-03-22T04:34:33;6.40;1.00
16154;DHT22;8182;55.648;13.208;2024-03-22T04:36:59;6.50;1.00
16154;DHT22;8182;55.648;13.208;2024-03-22T04:39:26;6.50;1.00
16154;DHT22;8182;55.648;13.208;2024-03-22T04:41:54;6.60;1.00
16154;DHT22;8182;55.648;13.208;2024-03-22T04:44:21;6.60;99.90
16154;DHT22;8182;55.648;13.208;2024-03-22T04:46:47;6.60;1.00
16154;DHT22;8182;55.648;13.208;2024-03-22T04:49:13;6.60;1.00
16154;DHT22;8182;55.648;13.208;2024-03-22T04:51:40;6.60;1.00
16154;DHT22;8182;55.648;13.208;2024-03-22T04:54:07;6.60;1.00
16154;DHT22;8182;55.648;13.208;2024-03-22T04:56:33;6.60;99.90
16154;DHT22;8182;55.648;13.208;2024-03-22T04:59:01;6.60;1.00
16154;DHT22;8182;55.648;13.208;2024-03-22T05:01:27;6.60;1.00
16154;DHT22;8182;55.648;13.208;2024-03-22T05:03:54;6.70;1.00
16154;DHT22;8182;55.648;13.208;2024-03-22T05:06:20;6.60;99.90
16154;DHT22;8182;55.648;13.208;2024-03-22T05:08:47;6.60;99.90
16154;DHT22;8182;55.648;13.208;2024-03-22T05:11:13;6.60;99.90
16154;DHT22;8182;55.648;13.208;2024-03-22T05:13:40;6.50;1.00
16154;DHT22;8182;55.648;13.208;2024-03-22T05:16:07;6.50;1.00
16154;DHT22;8182;55.648;13.208;2024-03-22T05:18:34;6.50;1.00
16154;DHT22;8182;55.648;13.208;2024-03-22T05:21:00;6.50;1.00
16154;DHT22;8182;55.648;13.208;2024-03-22T05:23:26;6.50;1.00
16154;DHT22;8182;55.648;13.208;2024-03-22T05:25:52;6.60;1.00
16154;DHT22;8182;55.648;13.208;2024-03-22T05:28:19;6.60;1.00
16154;DHT22;8182;55.648;13.208;2024-03-22T05:30:45;6.70;99.90
16154;DHT22;8182;55.648;13.208;2024-03-22T05:33:13;6.70;99.90
16154;DHT22;8182;55.648;13.208;2024-03-22T05:35:39;6.70;99.90
16154;DHT22;8182;55.648;13.208;2024-03-22T05:38:07;6.70;99.90
16154;DHT22;8182;55.648;13.208;2024-03-22T05:40:35;6.70;99.90
16154;DHT22;8182;55.648;13.208;2024-03-22T05:43:04;6.70;99.90
16154;DHT22;8182;55.648;13.208;2024-03-22T05:45:29;6.60;99.90
16154;DHT22;8182;55.648;13.208;2024-03-22T05:47:57;6.60;99.90
16154;DHT22;8182;55.648;13.208;2024-03-22T05:50:27;6.70;99.90
16154;DHT22;8182;55.648;13.208;2024-03-22T05:52:54;6.70;99.90
16154;DHT22;8182;55.648;13.208;2024-03-22T05:55:19;6.70;99.90
16154;DHT22;8182;55.648;13.208;2024-03-22T05:57:46;6.60;99.90
16154;DHT22;8182;55.648;13.208;2024-03-22T06:00:13;6.70;99.90
16154;DHT22;8182;55.648;13.208;2024-03-22T06:02:40;6.60;99.90
16154;DHT22;8182;55.648;13.208;2024-03-22T06:05:06;6.70;99.90
16154;DHT22;8182;55.648;13.208;2024-03-22T06:07:34;6.70;99.90
16154;DHT22;8182;55.648;13.208;2024-03-22T06:10:07;6.70;99.90
16154;DHT22;8182;55.648;13.208;2024-03-22T06:12:35;6.70;99.90
16154;DHT22;8182;55.648;13.208;2024-03-22T06:15:01;6.70;99.90
16154;DHT22;8182;55.648;13.208;2024-03-22T06:17:31;6.80;99.90
16154;DHT22;8182;55.648;13.208;2024-03-22T06:19:58;6.80;99.90
16154;DHT22;8182;55.648;13.208;2024-03-22T06:22:25;6.80;99.90
16154;DHT22;8182;55.648;13.208;2024-03-22T06:24:52;6.80;99.90
16154;DHT22;8182;55.648;13.208;2024-03-22T06:27:19;6.80;99.90
16154;DHT22;8182;55.648;13.208;2024-03-22T06:29:45;6.80;99.90
16154;DHT22;8182;55.648;13.208;2024-03-22T06:32:12;6.80;99.90
16154;DHT22;8182;55.648;13.208;2024-03-22T06:34:38;6.80;99.90
16154;DHT22;8182;55.648;13.208;2024-03-22T06:37:05;6.80;99.90
16154;DHT22;8182;55.648;13.208;2024-03-22T06:39:31;6.90;99.90
16154;DHT22;8182;55.648;13.208;2024-03-22T06:41:59;6.90;99.90
16154;DHT22;8182;55.648;13.208;2024-03-22T06:44:25;7.00;99.90
16154;DHT22;8182;55.648;13.208;2024-03-22T06:46:52;7.00;99.90
16154;DHT22;8182;55.648;13.208;2024-03-22T06:49:18;7.00;99.90
16154;DHT22;8182;55.648;13.208;2024-03-22T06:51:45;7.00;99.90
16154;DHT22;8182;55.648;13.208;2024-03-22T06:54:11;7.00;99.90
16154;DHT22;8182;55.648;13.208;2024-03-22T06:56:38;7.00;99.90
16154;DHT22;8182;55.648;13.208;2024-03-22T06:59:05;6.90;99.90
16154;DHT22;8182;55.648;13.208;2024-03-22T07:01:32;6.80;99.90
16154;DHT22;8182;55.648;13.208;2024-03-22T07:03:58;6.90;99.90
16154;DHT22;8182;55.648;13.208;2024-03-22T07:06:25;7.00;1.00
16154;DHT22;8182;55.648;13.208;2024-03-22T07:08:50;7.00;1.00
16154;DHT22;8182;55.648;13.208;2024-03-22T07:11:17;7.10;1.00
16154;DHT22;8182;55.648;13.208;2024-03-22T07:13:43;7.10;99.90
16154;DHT22;8182;55.648;13.208;2024-03-22T07:16:11;7.10;99.90
16154;DHT22;8182;55.648;13.208;2024-03-22T07:18:37;7.10;99.90
16154;DHT22;8182;55.648;13.208;2024-03-22T07:21:04;7.10;99.90
16154;DHT22;8182;55.648;13.208;2024-03-22T07:23:32;7.10;99.90
16154;DHT22;8182;55.648;13.208;2024-03-22T07:25:59;7.00;99.90
16154;DHT22;8182;55.648;13.208;2024-03-22T07:28:25;7.10;99.90
16154;DHT22;8182;55.648;13.208;2024-03-22T07:30:52;7.10;99.90
16154;DHT22;8182;55.648;13.208;2024-03-22T07:33:22;7.20;1.00
16154;DHT22;8182;55.648;13.208;2024-03-22T07:35:48;7.20;1.00
16154;DHT22;8182;55.648;13.208;2024-03-22T07:38:14;7.30;1.00
16154;DHT22;8182;55.648;13.208;2024-03-22T07:40:41;7.30;1.00
16154;DHT22;8182;55.648;13.208;2024-03-22T07:43:07;7.30;1.00
16154;DHT22;8182;55.648;13.208;2024-03-22T07:45:34;7.20;99.90
16154;DHT22;8182;55.648;13.208;2024-03-22T07:48:00;7.30;99.90
16154;DHT22;8182;55.648;13.208;2024-03-22T07:50:28;7.20;99.90
16154;DHT22;8182;55.648;13.208;2024-03-22T07:52:54;7.30;1.00
16154;DHT22;8182;55.648;13.208;2024-03-22T07:55:22;7.30;99.90
16154;DHT22;8182;55.648;13.208;2024-03-22T07:57:48;7.40;99.90
16154;DHT22;8182;55.648;13.208;2024-03-22T08:00:15;7.50;1.00
16154;DHT22;8182;55.648;13.208;2024-03-22T08:02:41;7.50;1.00
16154;DHT22;8182;55.648;13.208;2024-03-22T08:05:09;7.60;1.00
16154;DHT22;8182;55.648;13.208;2024-03-22T08:07:36;7.60;99.90
16154;DHT22;8182;55.648;13.208;2024-03-22T08:10:03;7.70;99.90
16154;DHT22;8182;55.648;13.208;2024-03-22T08:12:30;7.70;99.90
16154;DHT22;8182;55.648;13.208;2024-03-22T08:14:57;7.70;99.90
16154;DHT22;8182;55.648;13.208;2024-03-22T08:17:22;7.70;99.90
16154;DHT22;8182;55.648;13.208;2024-03-22T08:19:50;7.80;99.90
16154;DHT22;8182;55.648;13.208;2024-03-22T08:22:15;7.80;99.90
16154;DHT22;8182;55.648;13.208;2024-03-22T08:24:43;7.70;99.90
16154;DHT22;8182;55.648;13.208;2024-03-22T08:27:09;7.60;87.40
16154;DHT22;8182;55.648;13.208;2024-03-22T08:29:37;7.60;84.90
16154;DHT22;8182;55.648;13.208;2024-03-22T08:32:04;7.70;99.90
16154;DHT22;8182;55.648;13.208;2024-03-22T08:34:31;7.80;1.00
16154;DHT22;8182;55.648;13.208;2024-03-22T08:36:58;7.90;99.90
16154;DHT22;8182;55.648;13.208;2024-03-22T08:39:24;7.90;99.90
16154;DHT22;8182;55.648;13.208;2024-03-22T08:41:52;7.90;99.90
16154;DHT22;8182;55.648;13.208;2024-03-22T08:44:18;7.90;99.90
16154;DHT22;8182;55.648;13.208;2024-03-22T08:46:44;7.90;99.90
16154;DHT22;8182;55.648;13.208;2024-03-22T08:49:11;8.00;99.90
16154;DHT22;8182;55.648;13.208;2024-03-22T08:51:37;8.10;99.90
16154;DHT22;8182;55.648;13.208;2024-03-22T08:54:04;8.10;99.90
16154;DHT22;8182;55.648;13.208;2024-03-22T08:56:30;8.20;99.90
16154;DHT22;8182;55.648;13.208;2024-03-22T08:58:58;8.20;95.00
16154;DHT22;8182;55.648;13.208;2024-03-22T09:01:25;8.20;22.70
16154;DHT22;8182;55.648;13.208;2024-03-22T09:03:52;8.10;66.50
16154;DHT22;8182;55.648;13.208;2024-03-22T09:06:18;8.10;25.00
16154;DHT22;8182;55.648;13.208;2024-03-22T09:08:45;8.00;1.00
16154;DHT22;8182;55.648;13.208;2024-03-22T09:11:11;8.00;1.00
16154;DHT22;8182;55.648;13.208;2024-03-22T09:13:38;8.00;61.10
16154;DHT22;8182;55.648;13.208;2024-03-22T09:16:05;8.10;89.70
16154;DHT22;8182;55.648;13.208;2024-03-22T09:18:32;8.10;51.70
16154;DHT22;8182;55.648;13.208;2024-03-22T09:20:58;8.20;91.30
16154;DHT22;8182;55.648;13.208;2024-03-22T09:23:25;8.20;35.70
16154;DHT22;8182;55.648;13.208;2024-03-22T09:25:51;8.20;50.70
16154;DHT22;8182;55.648;13.208;2024-03-22T09:28:18;8.40;24.00
16154;DHT22;8182;55.648;13.208;2024-03-22T09:30:44;8.30;1.00
16154;DHT22;8182;55.648;13.208;2024-03-22T09:33:12;8.30;1.00
16154;DHT22;8182;55.648;13.208;2024-03-22T09:35:38;8.30;11.70
16154;DHT22;8182;55.648;13.208;2024-03-22T09:38:05;8.30;1.00
16154;DHT22;8182;55.648;13.208;2024-03-22T09:40:30;8.40;1.40
16154;DHT22;8182;55.648;13.208;2024-03-22T09:43:01;8.50;1.00
16154;DHT22;8182;55.648;13.208;2024-03-22T09:45:28;8.50;1.00
16154;DHT22;8182;55.648;13.208;2024-03-22T09:47:57;8.60;1.00
16154;DHT22;8182;55.648;13.208;2024-03-22T09:50:25;8.50;1.00
16154;DHT22;8182;55.648;13.208;2024-03-22T09:52:52;8.50;1.00
16154;DHT22;8182;55.648;13.208;2024-03-22T09:55:20;8.60;1.00
16154;DHT22;8182;55.648;13.208;2024-03-22T09:57:49;8.70;1.00
16154;DHT22;8182;55.648;13.208;2024-03-22T10:00:19;8.80;1.00
16154;DHT22;8182;55.648;13.208;2024-03-22T10:02:49;8.90;1.00
16154;DHT22;8182;55.648;13.208;2024-03-22T10:05:15;8.80;1.00
16154;DHT22;8182;55.648;13.208;2024-03-22T10:07:44;8.80;1.00
16154;DHT22;8182;55.648;13.208;2024-03-22T10:10:10;8.90;1.00
16154;DHT22;8182;55.648;13.208;2024-03-22T10:12:37;8.90;1.00
16154;DHT22;8182;55.648;13.208;2024-03-22T10:15:05;8.90;1.00
16154;DHT22;8182;55.648;13.208;2024-03-22T10:17:34;9.00;1.00
16154;DHT22;8182;55.648;13.208;2024-03-22T10:20:00;9.00;1.00
16154;DHT22;8182;55.648;13.208;2024-03-22T10:22:26;9.00;1.00
16154;DHT22;8182;55.648;13.208;2024-03-22T10:24:54;9.10;1.00
16154;DHT22;8182;55.648;13.208;2024-03-22T10:27:27;9.10;1.00
16154;DHT22;8182;55.648;13.208;2024-03-22T10:29:53;9.00;1.00
16154;DHT22;8182;55.648;13.208;2024-03-22T10:32:19;8.90;1.00
16154;DHT22;8182;55.648;13.208;2024-03-22T10:34:46;8.90;1.00
16154;DHT22;8182;55.648;13.208;2024-03-22T10:37:16;8.80;1.00
16154;DHT22;8182;55.648;13.208;2024-03-22T10:39:42;8.80;1.00
16154;DHT22;8182;55.648;13.208;2024-03-22T10:42:11;8.80;1.00
16154;DHT22;8182;55.648;13.208;2024-03-22T10:44:38;8.90;1.00
16154;DHT22;8182;55.648;13.208;2024-03-22T10:47:06;9.00;1.00
16154;DHT22;8182;55.648;13.208;2024-03-22T10:49:37;9.20;1.00
16154;DHT22;8182;55.648;13.208;2024-03-22T10:52:07;9.10;1.00
16154;DHT22;8182;55.648;13.208;2024-03-22T10:54:36;9.10;1.00
16154;DHT22;8182;55.648;13.208;2024-03-22T10:57:05;9.10;1.00
16154;DHT22;8182;55.648;13.208;2024-03-22T10:59:35;9.10;1.00
16154;DHT22;8182;55.648;13.208;2024-03-22T11:02:03;9.00;1.00
16154;DHT22;8182;55.648;13.208;2024-03-22T11:04:30;9.00;1.00
16154;DHT22;8182;55.648;13.208;2024-03-22T11:06:57;9.10;1.00
16154;DHT22;8182;55.648;13.208;2024-03-22T11:09:23;9.20;1.00
16154;DHT22;8182;55.648;13.208;2024-03-22T11:11:52;9.30;1.00
16154;DHT22;8182;55.648;13.208;2024-03-22T11:14:18;9.30;1.00
16154;DHT22;8182;55.648;13.208;2024-03-22T11:16:47;9.40;1.00
16154;DHT22;8182;55.648;13.208;2024-03-22T11:19:13;9.40;1.00
16154;DHT22;8182;55.648;13.208;2024-03-22T11:21:40;9.50;1.00
16154;DHT22;8182;55.648;13.208;2024-03-22T11:24:06;9.50;1.00
16154;DHT22;8182;55.648;13.208;2024-03-22T11:26:33;9.40;1.00
16154;DHT22;8182;55.648;13.208;2024-03-22T11:28:59;9.30;1.00
16154;DHT22;8182;55.648;13.208;2024-03-22T11:31:26;9.40;1.00
16154;DHT22;8182;55.648;13.208;2024-03-22T11:33:54;9.40;1.00
16154;DHT22;8182;55.648;13.208;2024-03-22T11:36:21;9.40;1.00
16154;DHT22;8182;55.648;13.208;2024-03-22T11:38:47;9.30;1.00
16154;DHT22;8182;55.648;13.208;2024-03-22T11:41:16;9.30;1.00
16154;DHT22;8182;55.648;13.208;2024-03-22T11:43:44;9.30;1.00
16154;DHT22;8182;55.648;13.208;2024-03-22T11:46:15;9.30;1.00
16154;DHT22;8182;55.648;13.208;2024-03-22T11:48:41;9.30;1.00
16154;DHT22;8182;55.648;13.208;2024-03-22T11:51:11;9.30;1.00
16154;DHT22;8182;55.648;13.208;2024-03-22T11:53:37;9.20;1.00
16154;DHT22;8182;55.648;13.208;2024-03-22T11:56:04;9.10;1.00
16154;DHT22;8182;55.648;13.208;2024-03-22T11:58:30;9.10;1.00
16154;DHT22;8182;55.648;13.208;2024-03-22T12:00:57;9.10;1.00
16154;DHT22;8182;55.648;13.208;2024-03-22T12:03:23;9.10;1.00
16154;DHT22;8182;55.648;13.208;2024-03-22T12:05:53;9.20;1.00
16154;DHT22;8182;55.648;13.208;2024-03-22T12:08:21;9.20;1.00
16154;DHT22;8182;55.648;13.208;2024-03-22T12:10:48;9.20;1.00
16154;DHT22;8182;55.648;13.208;2024-03-22T12:13:13;9.20;1.00
16154;DHT22;8182;55.648;13.208;2024-03-22T12:15:40;9.30;1.00
16154;DHT22;8182;55.648;13.208;2024-03-22T12:18:06;9.30;1.00
16154;DHT22;8182;55.648;13.208;2024-03-22T12:20:33;9.20;1.00
16154;DHT22;8182;55.648;13.208;2024-03-22T12:22:59;9.20;1.00
16154;DHT22;8182;55.648;13.208;2024-03-22T12:25:27;9.10;1.00
16154;DHT22;8182;55.648;13.208;2024-03-22T12:27:53;9.10;1.00
16154;DHT22;8182;55.648;13.208;2024-03-22T12:30:20;9.10;1.00
16154;DHT22;8182;55.648;13.208;2024-03-22T12:32:46;9.10;1.00
16154;DHT22;8182;55.648;13.208;2024-03-22T12:35:12;9.10;1.00
16154;DHT22;8182;55.648;13.208;2024-03-22T12:37:38;9.10;1.00
16154;DHT22;8182;55.648;13.208;2024-03-22T12:40:06;9.10;1.00
16154;DHT22;8182;55.648;13.208;2024-03-22T12:42:35;9.10;1.00
16154;DHT22;8182;55.648;13.208;2024-03-22T12:45:02;9.10;1.00
16154;DHT22;8182;55.648;13.208;2024-03-22T12:47:28;9.00;1.00
16154;DHT22;8182;55.648;13.208;2024-03-22T12:49:55;9.00;1.00
16154;DHT22;8182;55.648;13.208;2024-03-22T12:52:21;9.00;1.00
16154;DHT22;8182;55.648;13.208;2024-03-22T12:54:48;9.00;1.00
16154;DHT22;8182;55.648;13.208;2024-03-22T12:57:14;9.00;1.00
16154;DHT22;8182;55.648;13.208;2024-03-22T12:59:42;9.00;1.00
16154;DHT22;8182;55.648;13.208;2024-03-22T13:02:08;9.00;1.00
16154;DHT22;8182;55.648;13.208;2024-03-22T13:04:35;9.10;1.00
16154;DHT22;8182;55.648;13.208;2024-03-22T13:07:01;9.10;1.00
16154;DHT22;8182;55.648;13.208;2024-03-22T13:09:27;9.10;1.00
16154;DHT22;8182;55.648;13.208;2024-03-22T13:11:53;9.20;1.00
16154;DHT22;8182;55.648;13.208;2024-03-22T13:14:20;9.20;1.00
16154;DHT22;8182;55.648;13.208;2024-03-22T13:16:47;9.20;1.00
16154;DHT22;8182;55.648;13.208;2024-03-22T13:19:14;9.20;1.00
16154;DHT22;8182;55.648;13.208;2024-03-22T13:21:40;9.20;1.00
16154;DHT22;8182;55.648;13.208;2024-03-22T13:24:09;9.20;1.00
16154;DHT22;8182;55.648;13.208;2024-03-22T13:26:35;9.20;1.00
16154;DHT22;8182;55.648;13.208;2024-03-22T13:29:02;9.20;1.00
16154;DHT22;8182;55.648;13.208;2024-03-22T13:31:28;9.30;1.00
16154;DHT22;8182;55.648;13.208;2024-03-22T13:33:56;9.30;1.00
16154;DHT22;8182;55.648;13.208;2024-03-22T13:36:22;9.30;1.00
16154;DHT22;8182;55.648;13.208;2024-03-22T13:38:51;9.20;1.00
16154;DHT22;8182;55.648;13.208;2024-03-22T13:41:17;9.10;1.00
16154;DHT22;8182;55.648;13.208;2024-03-22T13:43:44;9.10;1.00
16154;DHT22;8182;55.648;13.208;2024-03-22T13:46:10;9.20;1.00
16154;DHT22;8182;55.648;13.208;2024-03-22T13:48:40;9.20;1.00
16154;DHT22;8182;55.648;13.208;2024-03-22T13:51:07;9.30;1.00
16154;DHT22;8182;55.648;13.208;2024-03-22T13:53:35;9.30;1.00
16154;DHT22;8182;55.648;13.208;2024-03-22T13:56:02;9.20;1.00
16154;DHT22;8182;55.648;13.208;2024-03-22T13:58:29;9.10;1.00
16154;DHT22;8182;55.648;13.208;2024-03-22T14:00:54;9.10;1.00
16154;DHT22;8182;55.648;13.208;2024-03-22T14:03:21;9.10;1.00
16154;DHT22;8182;55.648;13.208;2024-03-22T14:05:47;9.20;1.00
16154;DHT22;8182;55.648;13.208;2024-03-22T14:08:15;9.20;1.00
16154;DHT22;8182;55.648;13.208;2024-03-22T14:10:41;9.30;1.00
16154;DHT22;8182;55.648;13.208;2024-03-22T14:13:08;9.30;1.00
16154;DHT22;8182;55.648;13.208;2024-03-22T14:15:34;9.30;1.00
16154;DHT22;8182;55.648;13.208;2024-03-22T14:18:01;9.60;1.00
16154;DHT22;8182;55.648;13.208;2024-03-22T14:20:27;9.60;1.00
16154;DHT22;8182;55.648;13.208;2024-03-22T14:22:55;9.50;1.00
16154;DHT22;8182;55.648;13.208;2024-03-22T14:25:22;9.50;1.00
16154;DHT22;8182;55.648;13.208;2024-03-22T14:27:49;9.70;1.00
16154;DHT22;8182;55.648;13.208;2024-03-22T14:30:15;9.90;1.00
16154;DHT22;8182;55.648;13.208;2024-03-22T14:32:41;10.00;1.00
16154;DHT22;8182;55.648;13.208;2024-03-22T14:35:08;10.00;1.00
16154;DHT22;8182;55.648;13.208;2024-03-22T14:37:35;9.90;1.00
16154;DHT22;8182;55.648;13.208;2024-03-22T14:40:01;10.00;1.00
16154;DHT22;8182;55.648;13.208;2024-03-22T14:42:32;10.00;1.00
16154;DHT22;8182;55.648;13.208;2024-03-22T14:44:58;9.90;1.00
16154;DHT22;8182;55.648;13.208;2024-03-22T14:47:25;10.00;1.00
16154;DHT22;8182;55.648;13.208;2024-03-22T14:49:51;10.10;1.00
16154;DHT22;8182;55.648;13.208;2024-03-22T14:52:17;10.10;1.00
16154;DHT22;8182;55.648;13.208;2024-03-22T14:54:43;10.20;1.00
16154;DHT22;8182;55.648;13.208;2024-03-22T14:57:11;10.20;1.00
16154;DHT22;8182;55.648;13.208;2024-03-22T14:59:38;10.00;1.00
16154;DHT22;8182;55.648;13.208;2024-03-22T15:02:05;9.90;1.00
16154;DHT22;8182;55.648;13.208;2024-03-22T15:04:31;9.90;1.00
16154;DHT22;8182;55.648;13.208;2024-03-22T15:06:58;10.00;1.00
16154;DHT22;8182;55.648;13.208;2024-03-22T15:09:23;10.00;1.00
16154;DHT22;8182;55.648;13.208;2024-03-22T15:11:50;10.10;1.00
16154;DHT22;8182;55.648;13.208;2024-03-22T15:14:16;10.20;1.00
16154;DHT22;8182;55.648;13.208;2024-03-22T15:16:44;10.10;1.00
16154;DHT22;8182;55.648;13.208;2024-03-22T15:19:10;10.10;1.00
16154;DHT22;8182;55.648;13.208;2024-03-22T15:21:37;10.10;1.00
16154;DHT22;8182;55.648;13.208;2024-03-22T15:24:04;10.00;1.00
16154;DHT22;8182;55.648;13.208;2024-03-22T15:26:31;9.90;1.00
16154;DHT22;8182;55.648;13.208;2024-03-22T15:28:57;9.80;1.00
16154;DHT22;8182;55.648;13.208;2024-03-22T15:31:24;9.90;1.00
16154;DHT22;8182;55.648;13.208;2024-03-22T15:33:52;9.80;1.00
16154;DHT22;8182;55.648;13.208;2024-03-22T15:36:18;9.80;1.00
16154;DHT22;8182;55.648;13.208;2024-03-22T15:38:44;9.70;1.00
16154;DHT22;8182;55.648;13.208;2024-03-22T15:41:12;9.70;1.00
16154;DHT22;8182;55.648;13.208;2024-03-22T15:43:38;9.80;1.00
16154;DHT22;8182;55.648;13.208;2024-03-22T15:46:05;9.80;1.00
16154;DHT22;8182;55.648;13.208;2024-03-22T15:48:31;9.80;1.00
16154;DHT22;8182;55.648;13.208;2024-03-22T15:50:59;9.70;1.00
16154;DHT22;8182;55.648;13.208;2024-03-22T15:53:24;9.70;1.00